sensor_id;sensor_type;location;lat;lon;timestamp;temperature;humidity
69281;SHT31;56392;51.082;17.080;2023-04-24T00:04:05;14.66;72.96
69281;SHT31;56392;51.082;17.080;2023-04-24T00:09:33;14.58;73.19
69281;SHT31;56392;51.082;17.080;2023-04-24T00:14:56;14.59;73.25
69281;SHT31;56392;51.082;17.080;2023-04-24T00:20:20;14.56;73.44
69281;SHT31;56392;51.082;17.080;2023-04-24T00:25:45;14.49;74.06
69281;SHT31;56392;51.082;17.080;2023-04-24T00:31:08;14.48;74.51
69281;SHT31;56392;51.082;17.080;2023-04-24T00:36:31;14.46;74.71
69281;SHT31;56392;51.082;17.080;2023-04-24T00:41:56;14.45;75.09
69281;SHT31;56392;51.082;17.080;2023-04-24T00:47:21;14.50;75.10
69281;SHT31;56392;51.082;17.080;2023-04-24T00:52:44;14.56;74.92
69281;SHT31;56392;51.082;17.080;2023-04-24T00:58:09;14.59;75.17
69281;SHT31;56392;51.082;17.080;2023-04-24T01:03:33;14.63;74.75
69281;SHT31;56392;51.082;17.080;2023-04-24T01:08:59;14.66;74.82
69281;SHT31;56392;51.082;17.080;2023-04-24T01:14:24;14.63;74.62
69281;SHT31;56392;51.082;17.080;2023-04-24T01:19:47;14.58;74.76
69281;SHT31;56392;51.082;17.080;2023-04-24T01:25:12;14.52;74.61
69281;SHT31;56392;51.082;17.080;2023-04-24T01:30:35;14.48;74.78
69281;SHT31;56392;51.082;17.080;2023-04-24T01:35:58;14.43;74.90
69281;SHT31;56392;51.082;17.080;2023-04-24T01:41:23;14.39;75.03
69281;SHT31;56392;51.082;17.080;2023-04-24T01:46:47;14.38;74.86
69281;SHT31;56392;51.082;17.080;2023-04-24T01:52:10;14.36;75.12
69281;SHT31;56392;51.082;17.080;2023-04-24T01:57:35;14.28;74.92
69281;SHT31;56392;51.082;17.080;2023-04-24T02:02:58;14.19;75.28
69281;SHT31;56392;51.082;17.080;2023-04-24T02:08:23;14.14;75.36
69281;SHT31;56392;51.082;17.080;2023-04-24T02:13:48;14.09;75.40
69281;SHT31;56392;51.082;17.080;2023-04-24T02:19:12;14.02;75.73
69281;SHT31;56392;51.082;17.080;2023-04-24T02:24:35;14.00;76.12
69281;SHT31;56392;51.082;17.080;2023-04-24T02:30:00;14.00;75.88
69281;SHT31;56392;51.082;17.080;2023-04-24T02:35:24;14.02;75.85
69281;SHT31;56392;51.082;17.080;2023-04-24T02:40:47;14.05;75.66
69281;SHT31;56392;51.082;17.080;2023-04-24T02:46:12;14.05;75.77
69281;SHT31;56392;51.082;17.080;2023-04-24T02:51:35;14.11;75.53
69281;SHT31;56392;51.082;17.080;2023-04-24T02:57:02;14.14;75.58
69281;SHT31;56392;51.082;17.080;2023-04-24T03:02:27;14.19;76.12
69281;SHT31;56392;51.082;17.080;2023-04-24T03:07:50;14.24;76.37
69281;SHT31;56392;51.082;17.080;2023-04-24T03:13:15;14.15;76.32
69281;SHT31;56392;51.082;17.080;2023-04-24T03:18:39;14.04;77.54
69281;SHT31;56392;51.082;17.080;2023-04-24T03:24:02;14.07;77.41
69281;SHT31;56392;51.082;17.080;2023-04-24T03:29:26;14.15;77.28
69281;SHT31;56392;51.082;17.080;2023-04-24T03:34:50;14.19;77.43
69281;SHT31;56392;51.082;17.080;2023-04-24T03:40:13;14.22;77.38
69281;SHT31;56392;51.082;17.080;2023-04-24T03:45:37;14.25;77.20
69281;SHT31;56392;51.082;17.080;2023-04-24T03:51:01;14.15;76.87
69281;SHT31;56392;51.082;17.080;2023-04-24T03:56:25;14.14;76.97
69281;SHT31;56392;51.082;17.080;2023-04-24T04:01:48;14.07;76.47
69281;SHT31;56392;51.082;17.080;2023-04-24T04:07:14;14.00;76.28
69281;SHT31;56392;51.082;17.080;2023-04-24T04:12:37;13.91;76.31
69281;SHT31;56392;51.082;17.080;2023-04-24T04:18:00;13.78;76.40
69281;SHT31;56392;51.082;17.080;2023-04-24T04:23:25;13.63;76.67
69281;SHT31;56392;51.082;17.080;2023-04-24T04:28:49;13.57;76.95
69281;SHT31;56392;51.082;17.080;2023-04-24T04:34:12;13.53;77.08
69281;SHT31;56392;51.082;17.080;2023-04-24T04:39:37;13.54;76.94
69281;SHT31;56392;51.082;17.080;2023-04-24T04:45:00;13.56;76.86
69281;SHT31;56392;51.082;17.080;2023-04-24T04:50:24;13.54;76.92
69281;SHT31;56392;51.082;17.080;2023-04-24T04:55:48;13.54;76.67
69281;SHT31;56392;51.082;17.080;2023-04-24T05:01:11;13.64;76.61
69281;SHT31;56392;51.082;17.080;2023-04-24T05:06:35;13.85;75.45
69281;SHT31;56392;51.082;17.080;2023-04-24T05:11:59;14.12;74.50
69281;SHT31;56392;51.082;17.080;2023-04-24T05:17:23;14.39;73.03
69281;SHT31;56392;51.082;17.080;2023-04-24T05:22:47;14.70;71.74
69281;SHT31;56392;51.082;17.080;2023-04-24T05:28:12;15.04;71.62
69281;SHT31;56392;51.082;17.080;2023-04-24T05:33:35;15.44;69.13
69281;SHT31;56392;51.082;17.080;2023-04-24T05:38:58;15.58;67.40
69281;SHT31;56392;51.082;17.080;2023-04-24T05:44:23;15.66;67.37
69281;SHT31;56392;51.082;17.080;2023-04-24T05:49:46;15.73;67.26
69281;SHT31;56392;51.082;17.080;2023-04-24T05:55:09;15.75;67.50
69281;SHT31;56392;51.082;17.080;2023-04-24T06:00:34;15.82;65.81
69281;SHT31;56392;51.082;17.080;2023-04-24T06:05:58;15.88;66.19
69281;SHT31;56392;51.082;17.080;2023-04-24T06:11:21;15.95;65.99
69281;SHT31;56392;51.082;17.080;2023-04-24T06:16:46;16.05;65.98
69281;SHT31;56392;51.082;17.080;2023-04-24T06:22:09;16.08;64.72
69281;SHT31;56392;51.082;17.080;2023-04-24T06:27:32;16.09;64.98
69281;SHT31;56392;51.082;17.080;2023-04-24T06:32:56;16.06;64.11
69281;SHT31;56392;51.082;17.080;2023-04-24T06:38:20;16.00;64.29
69281;SHT31;56392;51.082;17.080;2023-04-24T06:43:43;16.06;64.69
69281;SHT31;56392;51.082;17.080;2023-04-24T06:49:07;16.08;64.97
69281;SHT31;56392;51.082;17.080;2023-04-24T06:54:31;16.13;65.35
69281;SHT31;56392;51.082;17.080;2023-04-24T06:59:54;16.17;65.60
69281;SHT31;56392;51.082;17.080;2023-04-24T07:05:18;16.23;64.48
69281;SHT31;56392;51.082;17.080;2023-04-24T07:10:42;16.27;64.97
69281;SHT31;56392;51.082;17.080;2023-04-24T07:16:06;16.34;65.33
69281;SHT31;56392;51.082;17.080;2023-04-24T07:21:31;16.44;65.23
69281;SHT31;56392;51.082;17.080;2023-04-24T07:26:54;16.56;65.36
69281;SHT31;56392;51.082;17.080;2023-04-24T07:32:18;16.72;65.22
69281;SHT31;56392;51.082;17.080;2023-04-24T07:37:43;16.89;64.10
69281;SHT31;56392;51.082;17.080;2023-04-24T07:43:07;17.02;63.10
69281;SHT31;56392;51.082;17.080;2023-04-24T07:48:30;17.19;62.94
69281;SHT31;56392;51.082;17.080;2023-04-24T07:53:54;17.36;62.07
69281;SHT31;56392;51.082;17.080;2023-04-24T07:59:17;17.49;61.21
69281;SHT31;56392;51.082;17.080;2023-04-24T08:04:40;17.50;61.05
69281;SHT31;56392;51.082;17.080;2023-04-24T08:10:09;17.45;61.17
69281;SHT31;56392;51.082;17.080;2023-04-24T08:15:32;17.40;61.38
69281;SHT31;56392;51.082;17.080;2023-04-24T08:20:55;17.38;61.12
69281;SHT31;56392;51.082;17.080;2023-04-24T08:26:24;17.38;61.17
69281;SHT31;56392;51.082;17.080;2023-04-24T08:31:48;17.32;63.01
69281;SHT31;56392;51.082;17.080;2023-04-24T08:37:11;17.33;63.63
69281;SHT31;56392;51.082;17.080;2023-04-24T08:42:37;17.42;64.08
69281;SHT31;56392;51.082;17.080;2023-04-24T08:48:00;17.46;64.79
69281;SHT31;56392;51.082;17.080;2023-04-24T08:53:24;17.56;65.27
69281;SHT31;56392;51.082;17.080;2023-04-24T08:58:50;17.62;65.49
69281;SHT31;56392;51.082;17.080;2023-04-24T09:04:14;17.67;64.76
69281;SHT31;56392;51.082;17.080;2023-04-24T09:09:38;17.76;65.87
69281;SHT31;56392;51.082;17.080;2023-04-24T09:15:04;17.86;66.02
69281;SHT31;56392;51.082;17.080;2023-04-24T09:20:28;18.05;65.88
69281;SHT31;56392;51.082;17.080;2023-04-24T09:25:54;18.28;65.70
69281;SHT31;56392;51.082;17.080;2023-04-24T09:31:20;18.55;65.32
69281;SHT31;56392;51.082;17.080;2023-04-24T09:36:44;18.73;64.66
69281;SHT31;56392;51.082;17.080;2023-04-24T09:42:07;18.73;62.33
69281;SHT31;56392;51.082;17.080;2023-04-24T09:47:37;18.71;63.56
69281;SHT31;56392;51.082;17.080;2023-04-24T09:53:02;18.62;63.41
69281;SHT31;56392;51.082;17.080;2023-04-24T09:58:25;18.55;63.40
69281;SHT31;56392;51.082;17.080;2023-04-24T10:03:51;18.58;63.35
69281;SHT31;56392;51.082;17.080;2023-04-24T10:09:14;18.59;63.43
69281;SHT31;56392;51.082;17.080;2023-04-24T10:14:37;18.55;63.99
69281;SHT31;56392;51.082;17.080;2023-04-24T10:20:03;18.56;63.85
69281;SHT31;56392;51.082;17.080;2023-04-24T10:25:28;18.56;63.43
69281;SHT31;56392;51.082;17.080;2023-04-24T10:30:54;18.54;63.04
69281;SHT31;56392;51.082;17.080;2023-04-24T10:36:22;18.58;62.83
69281;SHT31;56392;51.082;17.080;2023-04-24T10:41:45;18.56;62.84
69281;SHT31;56392;51.082;17.080;2023-04-24T10:47:13;18.58;62.28
69281;SHT31;56392;51.082;17.080;2023-04-24T10:52:47;18.55;61.48
69281;SHT31;56392;51.082;17.080;2023-04-24T10:58:12;18.56;62.31
69281;SHT31;56392;51.082;17.080;2023-04-24T11:03:36;18.59;62.15
69281;SHT31;56392;51.082;17.080;2023-04-24T11:09:06;18.62;62.20
69281;SHT31;56392;51.082;17.080;2023-04-24T11:14:29;18.62;60.92
69281;SHT31;56392;51.082;17.080;2023-04-24T11:20:00;18.58;60.34
69281;SHT31;56392;51.082;17.080;2023-04-24T11:25:25;18.58;59.92
69281;SHT31;56392;51.082;17.080;2023-04-24T11:30:48;18.68;59.56
69281;SHT31;56392;51.082;17.080;2023-04-24T11:36:12;18.72;59.49
69281;SHT31;56392;51.082;17.080;2023-04-24T11:41:37;18.75;59.92
69281;SHT31;56392;51.082;17.080;2023-04-24T11:47:00;18.76;59.65
69281;SHT31;56392;51.082;17.080;2023-04-24T11:52:23;18.75;59.10
69281;SHT31;56392;51.082;17.080;2023-04-24T11:57:50;18.71;58.44
69281;SHT31;56392;51.082;17.080;2023-04-24T12:03:13;18.71;58.46
69281;SHT31;56392;51.082;17.080;2023-04-24T12:08:37;18.68;59.10
69281;SHT31;56392;51.082;17.080;2023-04-24T12:14:10;18.63;58.82
69281;SHT31;56392;51.082;17.080;2023-04-24T12:19:33;18.61;58.89
69281;SHT31;56392;51.082;17.080;2023-04-24T12:24:58;18.56;59.19
69281;SHT31;56392;51.082;17.080;2023-04-24T12:30:27;18.56;59.63
69281;SHT31;56392;51.082;17.080;2023-04-24T12:35:52;18.52;59.83
69281;SHT31;56392;51.082;17.080;2023-04-24T12:41:16;18.45;59.89
69281;SHT31;56392;51.082;17.080;2023-04-24T12:46:43;18.38;60.66
69281;SHT31;56392;51.082;17.080;2023-04-24T12:52:06;18.31;60.91
69281;SHT31;56392;51.082;17.080;2023-04-24T12:57:30;18.27;60.76
69281;SHT31;56392;51.082;17.080;2023-04-24T13:02:54;18.23;60.58
69281;SHT31;56392;51.082;17.080;2023-04-24T13:08:18;18.20;60.45
69281;SHT31;56392;51.082;17.080;2023-04-24T13:13:41;18.14;60.67
69281;SHT31;56392;51.082;17.080;2023-04-24T13:19:06;18.05;62.21
69281;SHT31;56392;51.082;17.080;2023-04-24T13:24:30;17.90;63.52
69281;SHT31;56392;51.082;17.080;2023-04-24T13:29:53;17.74;62.25
69281;SHT31;56392;51.082;17.080;2023-04-24T13:35:18;17.56;61.68
69281;SHT31;56392;51.082;17.080;2023-04-24T13:40:41;17.39;61.40
69281;SHT31;56392;51.082;17.080;2023-04-24T13:46:04;17.32;61.84
69281;SHT31;56392;51.082;17.080;2023-04-24T13:51:29;17.22;61.95
69281;SHT31;56392;51.082;17.080;2023-04-24T13:56:53;17.11;61.32
69281;SHT31;56392;51.082;17.080;2023-04-24T14:02:17;17.04;61.12
69281;SHT31;56392;51.082;17.080;2023-04-24T14:07:41;16.96;60.18
69281;SHT31;56392;51.082;17.080;2023-04-24T14:13:05;16.87;59.38
69281;SHT31;56392;51.082;17.080;2023-04-24T14:18:28;16.77;60.18
69281;SHT31;56392;51.082;17.080;2023-04-24T14:23:52;16.65;60.88
69281;SHT31;56392;51.082;17.080;2023-04-24T14:29:16;16.61;61.27
69281;SHT31;56392;51.082;17.080;2023-04-24T14:34:39;16.51;61.40
69281;SHT31;56392;51.082;17.080;2023-04-24T14:40:04;16.46;61.85
69281;SHT31;56392;51.082;17.080;2023-04-24T14:45:28;16.40;61.84
69281;SHT31;56392;51.082;17.080;2023-04-24T14:50:51;16.29;61.85
69281;SHT31;56392;51.082;17.080;2023-04-24T14:56:16;16.27;62.12
69281;SHT31;56392;51.082;17.080;2023-04-24T15:01:39;16.22;62.36
69281;SHT31;56392;51.082;17.080;2023-04-24T15:07:02;16.17;62.92
69281;SHT31;56392;51.082;17.080;2023-04-24T15:12:27;16.12;63.76
69281;SHT31;56392;51.082;17.080;2023-04-24T15:17:51;16.02;64.43
69281;SHT31;56392;51.082;17.080;2023-04-24T15:23:14;15.92;64.59
69281;SHT31;56392;51.082;17.080;2023-04-24T15:28:39;15.82;65.07
69281;SHT31;56392;51.082;17.080;2023-04-24T15:34:02;15.79;65.99
69281;SHT31;56392;51.082;17.080;2023-04-24T15:39:26;15.72;66.52
69281;SHT31;56392;51.082;17.080;2023-04-24T15:44:51;15.73;66.96
69281;SHT31;56392;51.082;17.080;2023-04-24T15:50:14;15.68;67.86
69281;SHT31;56392;51.082;17.080;2023-04-24T15:55:38;15.66;67.66
69281;SHT31;56392;51.082;17.080;2023-04-24T16:01:03;15.57;67.62
69281;SHT31;56392;51.082;17.080;2023-04-24T16:06:26;15.45;67.85
69281;SHT31;56392;51.082;17.080;2023-04-24T16:11:49;15.47;68.12
69281;SHT31;56392;51.082;17.080;2023-04-24T16:17:15;15.44;68.86
69281;SHT31;56392;51.082;17.080;2023-04-24T16:22:43;15.41;69.32
69281;SHT31;56392;51.082;17.080;2023-04-24T16:28:06;15.35;69.98
69281;SHT31;56392;51.082;17.080;2023-04-24T16:33:31;15.34;70.18
69281;SHT31;56392;51.082;17.080;2023-04-24T16:38:55;15.28;71.11
69281;SHT31;56392;51.082;17.080;2023-04-24T16:44:18;15.23;71.94
69281;SHT31;56392;51.082;17.080;2023-04-24T16:49:42;15.23;71.95
69281;SHT31;56392;51.082;17.080;2023-04-24T16:55:06;15.19;72.55
69281;SHT31;56392;51.082;17.080;2023-04-24T17:00:30;15.16;72.87
69281;SHT31;56392;51.082;17.080;2023-04-24T17:05:55;15.12;73.14
69281;SHT31;56392;51.082;17.080;2023-04-24T17:11:18;15.10;74.15
69281;SHT31;56392;51.082;17.080;2023-04-24T17:16:42;15.07;74.48
69281;SHT31;56392;51.082;17.080;2023-04-24T17:22:08;15.01;74.65
69281;SHT31;56392;51.082;17.080;2023-04-24T17:27:31;14.97;74.80
69281;SHT31;56392;51.082;17.080;2023-04-24T17:32:54;14.86;75.46
69281;SHT31;56392;51.082;17.080;2023-04-24T17:38:19;14.81;75.54
69281;SHT31;56392;51.082;17.080;2023-04-24T17:43:42;14.81;75.63
69281;SHT31;56392;51.082;17.080;2023-04-24T17:49:06;14.84;76.12
69281;SHT31;56392;51.082;17.080;2023-04-24T17:54:30;14.86;76.36
69281;SHT31;56392;51.082;17.080;2023-04-24T17:59:53;14.84;76.11
69281;SHT31;56392;51.082;17.080;2023-04-24T18:05:18;14.86;75.95
69281;SHT31;56392;51.082;17.080;2023-04-24T18:10:43;14.86;76.09
69281;SHT31;56392;51.082;17.080;2023-04-24T18:16:06;14.84;75.85
69281;SHT31;56392;51.082;17.080;2023-04-24T18:21:30;14.77;75.68
69281;SHT31;56392;51.082;17.080;2023-04-24T18:26:54;14.73;76.00
69281;SHT31;56392;51.082;17.080;2023-04-24T18:32:18;14.69;76.99
69281;SHT31;56392;51.082;17.080;2023-04-24T18:37:41;14.63;77.11
69281;SHT31;56392;51.082;17.080;2023-04-24T18:43:07;14.56;77.06
69281;SHT31;56392;51.082;17.080;2023-04-24T18:48:30;14.52;77.40
69281;SHT31;56392;51.082;17.080;2023-04-24T18:53:54;14.45;77.95
69281;SHT31;56392;51.082;17.080;2023-04-24T18:59:18;14.48;77.67
69281;SHT31;56392;51.082;17.080;2023-04-24T19:04:41;14.48;78.08
69281;SHT31;56392;51.082;17.080;2023-04-24T19:10:07;14.50;77.86
69281;SHT31;56392;51.082;17.080;2023-04-24T19:15:32;14.53;77.91
69281;SHT31;56392;51.082;17.080;2023-04-24T19:20:55;14.56;77.74
69281;SHT31;56392;51.082;17.080;2023-04-24T19:26:19;14.55;78.08
69281;SHT31;56392;51.082;17.080;2023-04-24T19:31:45;14.52;78.06
69281;SHT31;56392;51.082;17.080;2023-04-24T19:37:09;14.56;77.98
69281;SHT31;56392;51.082;17.080;2023-04-24T19:42:32;14.56;77.59
69281;SHT31;56392;51.082;17.080;2023-04-24T19:47:56;14.58;77.15
69281;SHT31;56392;51.082;17.080;2023-04-24T19:53:20;14.56;77.20
69281;SHT31;56392;51.082;17.080;2023-04-24T19:58:43;14.55;77.00
69281;SHT31;56392;51.082;17.080;2023-04-24T20:04:10;14.49;76.92
69281;SHT31;56392;51.082;17.080;2023-04-24T20:09:33;14.43;76.89
69281;SHT31;56392;51.082;17.080;2023-04-24T20:14:57;14.36;76.53
69281;SHT31;56392;51.082;17.080;2023-04-24T20:20:23;14.24;76.40
69281;SHT31;56392;51.082;17.080;2023-04-24T20:25:46;14.19;76.44
69281;SHT31;56392;51.082;17.080;2023-04-24T20:31:09;14.24;76.27
69281;SHT31;56392;51.082;17.080;2023-04-24T20:36:34;14.18;76.75
69281;SHT31;56392;51.082;17.080;2023-04-24T20:41:57;14.17;76.46
69281;SHT31;56392;51.082;17.080;2023-04-24T20:47:20;14.18;76.61
69281;SHT31;56392;51.082;17.080;2023-04-24T20:52:45;14.11;76.87
69281;SHT31;56392;51.082;17.080;2023-04-24T20:58:08;14.08;77.07
69281;SHT31;56392;51.082;17.080;2023-04-24T21:03:33;14.08;76.70
69281;SHT31;56392;51.082;17.080;2023-04-24T21:08:57;14.01;77.00
69281;SHT31;56392;51.082;17.080;2023-04-24T21:14:21;13.98;76.81
69281;SHT31;56392;51.082;17.080;2023-04-24T21:19:44;13.94;76.38
69281;SHT31;56392;51.082;17.080;2023-04-24T21:25:09;13.84;75.98
69281;SHT31;56392;51.082;17.080;2023-04-24T21:30:32;13.75;76.01
69281;SHT31;56392;51.082;17.080;2023-04-24T21:35:55;13.73;74.94
69281;SHT31;56392;51.082;17.080;2023-04-24T21:41:20;13.69;75.26
69281;SHT31;56392;51.082;17.080;2023-04-24T21:46:43;13.63;74.74
69281;SHT31;56392;51.082;17.080;2023-04-24T21:52:06;13.56;73.74
69281;SHT31;56392;51.082;17.080;2023-04-24T21:57:31;13.44;72.38
69281;SHT31;56392;51.082;17.080;2023-04-24T22:02:54;13.30;71.93
69281;SHT31;56392;51.082;17.080;2023-04-24T22:08:17;13.18;70.81
69281;SHT31;56392;51.082;17.080;2023-04-24T22:13:42;13.08;70.11
69281;SHT31;56392;51.082;17.080;2023-04-24T22:19:05;12.98;69.97
69281;SHT31;56392;51.082;17.080;2023-04-24T22:24:29;12.95;69.69
69281;SHT31;56392;51.082;17.080;2023-04-24T22:29:53;12.95;69.62
69281;SHT31;56392;51.082;17.080;2023-04-24T22:35:17;12.92;69.27
69281;SHT31;56392;51.082;17.080;2023-04-24T22:40:41;12.84;69.15
69281;SHT31;56392;51.082;17.080;2023-04-24T22:46:05;12.75;68.94
69281;SHT31;56392;51.082;17.080;2023-04-24T22:51:28;12.78;69.25
69281;SHT31;56392;51.082;17.080;2023-04-24T22:56:54;12.77;68.49
69281;SHT31;56392;51.082;17.080;2023-04-24T23:02:18;12.67;68.25
69281;SHT31;56392;51.082;17.080;2023-04-24T23:07:41;12.57;68.14
69281;SHT31;56392;51.082;17.080;2023-04-24T23:13:04;12.41;67.61
69281;SHT31;56392;51.082;17.080;2023-04-24T23:18:29;12.23;67.78
69281;SHT31;56392;51.082;17.080;2023-04-24T23:23:52;12.12;67.69
69281;SHT31;56392;51.082;17.080;2023-04-24T23:29:15;12.10;68.01
69281;SHT31;56392;51.082;17.080;2023-04-24T23:34:40;12.04;67.82
69281;SHT31;56392;51.082;17.080;2023-04-24T23:40:04;12.03;68.01
69281;SHT31;56392;51.082;17.080;2023-04-24T23:45:28;11.91;67.66
69281;SHT31;56392;51.082;17.080;2023-04-24T23:50:52;11.87;67.83
69281;SHT31;56392;51.082;17.080;2023-04-24T23:56:15;11.83;67.73
